createdAt,value
2023-01-08T00:01:28.745Z,9.98
2023-01-08T00:03:59.626Z,9.87
2023-01-08T00:06:31.558Z,9.97
2023-01-08T00:09:02.435Z,9.92
2023-01-08T00:11:35.845Z,9.87
2023-01-08T00:14:06.616Z,9.93
2023-01-08T00:16:40.822Z,9.87
2023-01-08T00:19:14.463Z,9.85
2023-01-08T00:21:44.886Z,9.83
2023-01-08T00:24:17.349Z,9.82
2023-01-08T00:26:50.453Z,9.83
2023-01-08T00:29:24.387Z,9.87
2023-01-08T00:31:55.175Z,9.88
2023-01-08T00:34:25.716Z,9.79
2023-01-08T00:36:56.269Z,9.73
2023-01-08T00:39:26.999Z,9.94
2023-01-08T00:42:00.279Z,9.93
2023-01-08T00:44:30.828Z,9.85
2023-01-08T00:47:01.400Z,9.93
2023-01-08T00:49:31.948Z,9.98
2023-01-08T00:52:02.565Z,10.03
2023-01-08T00:54:33.525Z,10.05
2023-01-08T00:57:14.647Z,10.08
2023-01-08T00:59:45.343Z,10.06
2023-01-08T01:02:19.408Z,10.08
2023-01-08T01:04:49.992Z,10.00
2023-01-08T01:07:20.829Z,10.10
2023-01-08T01:09:51.354Z,10.09
2023-01-08T01:12:24.393Z,10.07
2023-01-08T01:14:54.912Z,10.07
2023-01-08T01:17:25.407Z,10.03
2023-01-08T01:19:56.032Z,10.04
2023-01-08T01:22:26.583Z,10.06
2023-01-08T01:24:57.137Z,10.05
2023-01-08T01:27:30.626Z,10.09
2023-01-08T01:30:01.183Z,10.12
2023-01-08T01:32:32.106Z,10.13
2023-01-08T01:35:02.574Z,10.16
2023-01-08T01:37:33.108Z,10.17
2023-01-08T01:40:03.638Z,10.15
2023-01-08T01:42:45.441Z,10.15
2023-01-08T01:45:22.563Z,10.11
2023-01-08T01:47:58.798Z,10.09
2023-01-08T01:50:33.500Z,10.07
2023-01-08T01:53:09.994Z,10.06
2023-01-08T01:55:43.577Z,10.15
2023-01-08T01:58:19.135Z,10.20
2023-01-08T02:00:50.028Z,10.22
2023-01-08T02:03:25.343Z,10.11
2023-01-08T02:06:02.910Z,10.09
2023-01-08T02:08:45.115Z,10.19
2023-01-08T02:11:19.705Z,10.17
2023-01-08T02:13:58.120Z,10.18
2023-01-08T02:16:35.943Z,10.17
2023-01-08T02:19:16.991Z,10.16
2023-01-08T02:22:02.851Z,10.16
2023-01-08T02:24:54.586Z,10.24
2023-01-08T02:27:32.565Z,10.30
2023-01-08T02:30:04.328Z,10.34
2023-01-08T02:32:39.613Z,10.34
2023-01-08T02:35:11.868Z,10.35
2023-01-08T02:37:43.552Z,10.36
2023-01-08T02:40:21.601Z,10.35
2023-01-08T02:43:01.344Z,10.36
2023-01-08T02:45:41.950Z,10.31
2023-01-08T02:48:15.484Z,10.26
2023-01-08T02:50:57.918Z,10.28
2023-01-08T02:53:37.298Z,10.28
2023-01-08T02:56:12.292Z,10.24
2023-01-08T02:58:48.179Z,10.24
2023-01-08T03:01:20.986Z,10.22
2023-01-08T03:03:55.751Z,10.22
2023-01-08T03:06:26.959Z,10.23
2023-01-08T03:08:58.078Z,10.12
2023-01-08T03:11:35.755Z,10.23
2023-01-08T03:14:15.134Z,10.16
2023-01-08T03:16:50.943Z,10.06
2023-01-08T03:19:26.099Z,10.20
2023-01-08T03:21:56.873Z,10.21
2023-01-08T03:24:31.233Z,10.21
2023-01-08T03:27:04.335Z,10.21
2023-01-08T03:29:40.819Z,10.22
2023-01-08T03:32:15.562Z,10.22
2023-01-08T03:34:48.841Z,10.23
2023-01-08T03:37:35.121Z,10.26
2023-01-08T03:40:11.077Z,10.24
2023-01-08T03:42:42.525Z,10.35
2023-01-08T03:45:15.970Z,10.40
2023-01-08T03:47:48.632Z,10.46
2023-01-08T03:50:24.150Z,10.45
2023-01-08T03:52:55.202Z,10.51
2023-01-08T03:55:25.824Z,10.53
2023-01-08T03:57:56.575Z,10.55
2023-01-08T04:00:30.110Z,10.54
2023-01-08T04:03:13.407Z,10.51
2023-01-08T04:05:48.015Z,10.43
2023-01-08T04:08:19.823Z,10.35
2023-01-08T04:10:50.965Z,10.36
2023-01-08T04:13:28.876Z,10.34
2023-01-08T04:16:02.022Z,10.37
2023-01-08T04:18:38.870Z,10.37
2023-01-08T04:21:09.584Z,10.30
2023-01-08T04:23:40.141Z,10.35
2023-01-08T04:26:12.318Z,10.26
2023-01-08T04:28:45.196Z,10.33
2023-01-08T04:31:18.363Z,10.32
2023-01-08T04:33:49.221Z,10.27
2023-01-08T04:36:19.843Z,10.27
2023-01-08T04:38:50.720Z,10.26
2023-01-08T04:41:24.313Z,10.27
2023-01-08T04:43:55.589Z,10.17
2023-01-08T04:46:29.563Z,10.30
2023-01-08T04:49:00.529Z,10.31
2023-01-08T04:51:31.222Z,10.27
2023-01-08T04:54:02.189Z,10.28
2023-01-08T04:56:32.824Z,10.29
2023-01-08T04:59:03.385Z,10.31
2023-01-08T05:01:36.541Z,10.30
2023-01-08T05:04:08.274Z,10.16
2023-01-08T05:06:38.939Z,10.29
2023-01-08T05:09:09.635Z,10.26
2023-01-08T05:11:43.352Z,10.26
2023-01-08T05:14:14.008Z,10.27
2023-01-08T05:16:49.350Z,10.19
2023-01-08T05:19:23.045Z,10.10
2023-01-08T05:21:53.470Z,10.27
2023-01-08T05:24:24.603Z,10.28
2023-01-08T05:26:55.201Z,10.27
2023-01-08T05:29:25.825Z,10.22
2023-01-08T05:31:58.839Z,10.18
2023-01-08T05:34:29.797Z,10.06
2023-01-08T05:37:00.294Z,10.07
2023-01-08T05:39:30.888Z,10.04
2023-01-08T05:42:01.383Z,10.00
2023-01-08T05:44:32.189Z,9.98
2023-01-08T05:47:05.388Z,9.96
2023-01-08T05:49:35.988Z,9.92
2023-01-08T05:52:07.184Z,9.90
2023-01-08T05:54:37.818Z,9.89
2023-01-08T05:57:08.339Z,9.90
2023-01-08T05:59:39.032Z,9.90
2023-01-08T06:02:14.632Z,9.88
2023-01-08T06:04:45.270Z,9.83
2023-01-08T06:07:15.871Z,9.72
2023-01-08T06:09:46.387Z,9.78
2023-01-08T06:12:19.377Z,9.67
2023-01-08T06:14:49.847Z,9.73
2023-01-08T06:17:25.078Z,9.70
2023-01-08T06:19:55.538Z,9.69
2023-01-08T06:22:26.188Z,9.66
2023-01-08T06:24:56.870Z,9.64
2023-01-08T06:27:27.547Z,9.60
2023-01-08T06:29:58.394Z,9.49
2023-01-08T06:32:34.735Z,9.50
2023-01-08T06:35:05.675Z,9.51
2023-01-08T06:37:36.163Z,9.58
2023-01-08T06:40:07.428Z,9.55
2023-01-08T06:42:38.627Z,9.38
2023-01-08T06:45:13.780Z,9.57
2023-01-08T06:47:47.001Z,9.56
2023-01-08T06:50:17.794Z,9.47
2023-01-08T06:52:56.079Z,9.53
2023-01-08T06:55:27.606Z,9.53
2023-01-08T06:57:59.456Z,9.52
2023-01-08T07:00:30.341Z,9.57
2023-01-08T07:03:04.078Z,9.60
2023-01-08T07:05:34.972Z,9.60
2023-01-08T07:08:05.568Z,9.55
2023-01-08T07:10:37.567Z,9.47
2023-01-08T07:13:09.198Z,9.50
2023-01-08T07:15:40.018Z,9.43
2023-01-08T07:18:14.954Z,9.49
2023-01-08T07:20:49.163Z,9.52
2023-01-08T07:23:20.121Z,9.51
2023-01-08T07:25:51.283Z,9.49
2023-01-08T07:28:21.770Z,9.42
2023-01-08T07:30:52.493Z,9.41
2023-01-08T07:33:25.680Z,9.42
2023-01-08T07:35:56.724Z,9.42
2023-01-08T07:38:30.786Z,9.38
2023-01-08T07:41:01.399Z,9.48
2023-01-08T07:43:33.041Z,9.47
2023-01-08T07:46:09.172Z,9.48
2023-01-08T07:48:42.846Z,9.44
2023-01-08T07:51:13.902Z,9.40
2023-01-08T07:53:44.551Z,9.40
2023-01-08T07:56:15.169Z,9.39
2023-01-08T07:58:45.976Z,9.38
2023-01-08T08:01:18.350Z,9.40
2023-01-08T08:03:51.910Z,9.42
2023-01-08T08:06:22.587Z,9.46
2023-01-08T08:08:53.325Z,9.49
2023-01-08T08:11:23.949Z,9.46
2023-01-08T08:13:56.642Z,9.46
2023-01-08T08:16:27.402Z,9.46
2023-01-08T08:19:08.125Z,9.47
2023-01-08T08:21:38.619Z,9.46
2023-01-08T08:24:10.165Z,9.32
2023-01-08T08:26:40.735Z,9.43
2023-01-08T08:29:11.365Z,9.48
2023-01-08T08:31:42.838Z,9.45
2023-01-08T08:34:16.125Z,9.55
2023-01-08T08:36:46.751Z,9.57
2023-01-08T08:39:17.677Z,9.57
2023-01-08T08:41:48.165Z,9.55
2023-01-08T08:44:18.591Z,9.52
2023-01-08T08:46:49.278Z,9.52
2023-01-08T08:49:22.520Z,9.45
2023-01-08T08:51:53.577Z,9.56
2023-01-08T08:54:27.364Z,9.59
2023-01-08T08:56:58.740Z,9.62
2023-01-08T08:59:29.842Z,9.65
2023-01-08T09:02:00.692Z,9.68
2023-01-08T09:04:36.075Z,9.75
2023-01-08T09:07:06.899Z,9.73
2023-01-08T09:09:37.460Z,9.68
2023-01-08T09:12:08.890Z,9.72
2023-01-08T09:14:39.385Z,9.70
2023-01-08T09:17:10.050Z,9.69
2023-01-08T09:19:43.120Z,9.73
2023-01-08T09:22:13.658Z,9.85
2023-01-08T09:24:44.227Z,9.91
2023-01-08T09:27:14.804Z,9.96
2023-01-08T09:29:45.462Z,9.92
2023-01-08T09:32:16.395Z,9.90
2023-01-08T09:34:49.955Z,9.84
2023-01-08T09:37:20.350Z,9.89
2023-01-08T09:39:57.654Z,9.84
2023-01-08T09:42:33.801Z,9.90
2023-01-08T09:45:05.949Z,9.86
2023-01-08T09:47:41.233Z,9.92
2023-01-08T09:50:17.244Z,9.98
2023-01-08T09:52:47.728Z,10.05
2023-01-08T09:55:19.455Z,10.12
2023-01-08T09:57:51.747Z,10.22
2023-01-08T10:00:28.245Z,10.30
2023-01-08T10:03:00.225Z,10.29
2023-01-08T10:05:33.766Z,10.29
2023-01-08T10:08:05.402Z,10.33
2023-01-08T10:10:36.698Z,10.42
2023-01-08T10:13:07.747Z,10.46
2023-01-08T10:15:38.444Z,10.57
2023-01-08T10:18:14.723Z,10.60
2023-01-08T10:20:48.174Z,10.70
2023-01-08T10:23:21.262Z,10.71
2023-01-08T10:25:55.006Z,10.72
2023-01-08T10:28:27.568Z,10.71
2023-01-08T10:31:06.636Z,10.86
2023-01-08T10:33:43.806Z,10.94
2023-01-08T10:36:20.192Z,10.99
2023-01-08T10:38:55.231Z,11.06
2023-01-08T10:41:26.379Z,11.07
2023-01-08T10:44:04.036Z,11.12
2023-01-08T10:46:38.727Z,11.05
2023-01-08T10:49:11.011Z,11.10
2023-01-08T10:51:52.476Z,11.12
2023-01-08T10:54:39.344Z,11.08
2023-01-08T10:57:23.759Z,11.10
2023-01-08T10:59:54.714Z,11.07
2023-01-08T11:02:38.385Z,11.06
2023-01-08T11:05:11.777Z,11.00
2023-01-08T11:07:48.164Z,10.97
2023-01-08T11:10:26.917Z,10.97
2023-01-08T11:12:59.724Z,11.05
2023-01-08T11:15:36.033Z,11.13
2023-01-08T11:18:08.952Z,11.24
2023-01-08T11:20:42.293Z,11.28
2023-01-08T11:23:21.993Z,11.27
2023-01-08T11:25:58.754Z,11.07
2023-01-08T11:28:41.392Z,11.26
2023-01-08T11:31:17.989Z,11.26
2023-01-08T11:33:56.991Z,11.12
2023-01-08T11:36:33.123Z,11.26
2023-01-08T11:39:06.336Z,11.24
2023-01-08T11:41:54.240Z,11.21
2023-01-08T11:44:39.158Z,11.14
2023-01-08T11:47:21.942Z,11.07
2023-01-08T11:50:12.472Z,11.00
2023-01-08T11:53:02.679Z,11.03
2023-01-08T11:55:48.921Z,11.07
2023-01-08T11:58:31.248Z,11.03
2023-01-08T12:01:20.430Z,11.03
2023-01-08T12:03:57.811Z,11.04
2023-01-08T12:06:40.941Z,11.08
2023-01-08T12:09:20.394Z,11.08
2023-01-08T12:12:00.513Z,11.11
2023-01-08T12:14:50.596Z,11.14
2023-01-08T12:17:59.897Z,11.14
2023-01-08T12:20:39.577Z,11.12
2023-01-08T12:23:24.568Z,11.14
2023-01-08T12:26:10.126Z,11.15
2023-01-08T12:29:08.936Z,11.11
2023-01-08T12:32:07.406Z,11.08
2023-01-08T12:34:46.473Z,11.05
2023-01-08T12:37:22.638Z,11.06
2023-01-08T12:40:02.300Z,11.05
2023-01-08T12:42:35.246Z,11.08
2023-01-08T12:45:16.851Z,11.07
2023-01-08T12:47:51.713Z,11.24
2023-01-08T12:50:40.356Z,11.27
2023-01-08T12:53:21.812Z,11.29
2023-01-08T12:56:02.534Z,11.32
2023-01-08T12:58:42.015Z,11.35
2023-01-08T13:01:27.090Z,11.37
2023-01-08T13:03:58.490Z,11.41
2023-01-08T13:06:29.896Z,11.44
2023-01-08T13:09:02.394Z,11.38
2023-01-08T13:11:35.347Z,11.48
2023-01-08T13:14:12.469Z,11.49
2023-01-08T13:16:49.370Z,11.48
2023-01-08T13:19:28.824Z,11.49
2023-01-08T13:22:02.254Z,11.50
2023-01-08T13:24:35.607Z,11.47
2023-01-08T13:27:31.164Z,11.45
2023-01-08T13:30:02.238Z,11.58
2023-01-08T13:32:47.908Z,11.72
2023-01-08T13:35:25.528Z,11.78
2023-01-08T13:38:15.388Z,11.82
2023-01-08T13:41:08.563Z,11.82
2023-01-08T13:43:42.292Z,11.85
2023-01-08T13:46:20.096Z,11.77
2023-01-08T13:49:02.585Z,11.80
2023-01-08T13:51:35.996Z,11.71
2023-01-08T13:54:22.140Z,11.77
2023-01-08T13:56:57.619Z,11.78
2023-01-08T13:59:39.804Z,11.80
2023-01-08T14:02:34.884Z,11.73
2023-01-08T14:05:22.361Z,11.67
2023-01-08T14:07:53.036Z,11.63
2023-01-08T14:10:24.522Z,11.54
2023-01-08T14:12:55.353Z,11.48
2023-01-08T14:15:28.655Z,11.48
2023-01-08T14:18:03.184Z,11.43
2023-01-08T14:20:39.755Z,11.42
2023-01-08T14:23:16.009Z,11.44
2023-01-08T14:25:50.556Z,11.35
2023-01-08T14:28:24.274Z,11.22
2023-01-08T14:30:56.661Z,11.04
2023-01-08T14:33:34.789Z,10.90
2023-01-08T14:36:11.267Z,10.74
2023-01-08T14:38:42.412Z,10.65
2023-01-08T14:41:15.738Z,10.63
2023-01-08T14:43:49.916Z,10.65
2023-01-08T14:46:24.750Z,10.75
2023-01-08T14:48:57.200Z,10.81
2023-01-08T14:51:32.330Z,10.87
2023-01-08T14:54:06.409Z,10.87
2023-01-08T14:56:38.759Z,10.71
2023-01-08T14:59:13.009Z,10.80
2023-01-08T15:01:46.749Z,10.77
2023-01-08T15:04:20.474Z,10.73
2023-01-08T15:06:55.640Z,10.72
2023-01-08T15:09:33.500Z,10.74
2023-01-08T15:12:07.314Z,10.76
2023-01-08T15:14:38.090Z,10.69
2023-01-08T15:17:14.172Z,10.54
2023-01-08T15:19:50.231Z,10.61
2023-01-08T15:22:26.254Z,10.67
2023-01-08T15:25:01.051Z,10.63
2023-01-08T15:27:47.141Z,10.61
2023-01-08T15:30:29.155Z,10.61
2023-01-08T15:33:09.978Z,10.53
2023-01-08T15:35:40.585Z,10.41
2023-01-08T15:38:13.692Z,10.36
2023-01-08T15:40:44.854Z,10.32
2023-01-08T15:43:14.318Z,10.28
2023-01-08T15:45:47.117Z,10.22
2023-01-08T15:48:38.890Z,10.10
2023-01-08T15:51:27.897Z,9.97
2023-01-08T15:54:39.090Z,9.86
2023-01-08T15:57:35.399Z,9.80
2023-01-08T16:00:45.183Z,9.70
2023-01-08T16:03:17.797Z,9.69
2023-01-08T16:05:48.372Z,9.62
2023-01-08T16:08:18.933Z,9.57
2023-01-08T16:10:54.590Z,9.49
2023-01-08T16:13:25.099Z,9.52
2023-01-08T16:15:55.980Z,9.50
2023-01-08T16:18:26.715Z,9.54
2023-01-08T16:21:02.779Z,9.55
2023-01-08T16:23:33.232Z,9.58
2023-01-08T16:26:08.279Z,9.62
2023-01-08T16:28:38.858Z,9.66
2023-01-08T16:31:09.627Z,9.71
2023-01-08T16:33:40.692Z,9.74
2023-01-08T16:36:12.847Z,9.77
2023-01-08T16:38:43.434Z,9.65
2023-01-08T16:41:16.821Z,9.79
2023-01-08T16:43:48.063Z,9.78
2023-01-08T16:46:19.854Z,9.79
2023-01-08T16:48:51.407Z,9.80
2023-01-08T16:51:22.330Z,9.81
2023-01-08T16:53:53.119Z,9.80
2023-01-08T16:56:26.288Z,9.79
2023-01-08T16:58:56.780Z,9.77
2023-01-08T17:01:28.042Z,9.86
2023-01-08T17:04:00.418Z,9.90
2023-01-08T17:06:31.778Z,9.75
2023-01-08T17:09:02.754Z,9.27
2023-01-08T17:11:35.688Z,9.17
2023-01-08T17:14:07.025Z,8.98
2023-01-08T17:16:38.091Z,8.82
2023-01-08T17:19:08.657Z,8.77
2023-01-08T17:21:39.191Z,8.56
2023-01-08T17:24:10.805Z,8.50
2023-01-08T17:26:43.939Z,8.61
2023-01-08T17:29:14.464Z,8.60
2023-01-08T17:31:45.025Z,8.59
2023-01-08T17:34:16.490Z,8.58
2023-01-08T17:36:46.897Z,8.55
2023-01-08T17:39:17.990Z,8.55
2023-01-08T17:42:03.480Z,8.60
2023-01-08T17:44:34.123Z,8.64
2023-01-08T17:47:04.661Z,8.62
2023-01-08T17:49:35.216Z,8.61
2023-01-08T17:52:05.797Z,8.58
2023-01-08T17:54:36.245Z,8.61
2023-01-08T17:57:09.450Z,8.69
2023-01-08T17:59:40.195Z,8.71
2023-01-08T18:02:15.711Z,8.53
2023-01-08T18:04:48.426Z,8.67
2023-01-08T18:07:23.475Z,8.58
2023-01-08T18:09:56.977Z,8.41
2023-01-08T18:12:30.110Z,8.37
2023-01-08T18:15:01.027Z,8.29
2023-01-08T18:17:32.787Z,8.28
2023-01-08T18:20:03.289Z,8.22
2023-01-08T18:22:33.735Z,8.21
2023-01-08T18:25:04.213Z,8.17
2023-01-08T18:27:37.547Z,8.16
2023-01-08T18:30:09.831Z,8.16
2023-01-08T18:32:40.260Z,8.15
2023-01-08T18:35:12.915Z,8.19
2023-01-08T18:37:43.436Z,8.23
2023-01-08T18:40:15.162Z,8.24
2023-01-08T18:42:50.223Z,8.28
2023-01-08T18:45:20.951Z,8.32
2023-01-08T18:47:55.317Z,8.40
2023-01-08T18:50:28.329Z,8.43
2023-01-08T18:52:59.309Z,8.32
2023-01-08T18:55:29.804Z,8.46
2023-01-08T18:58:04.641Z,8.48
2023-01-08T19:00:37.401Z,8.44
2023-01-08T19:03:09.525Z,8.51
2023-01-08T19:05:43.159Z,8.48
2023-01-08T19:08:14.047Z,8.44
2023-01-08T19:10:44.580Z,8.48
2023-01-08T19:13:19.108Z,8.45
2023-01-08T19:15:50.176Z,8.42
2023-01-08T19:18:22.960Z,8.43
2023-01-08T19:20:53.419Z,8.40
2023-01-08T19:23:23.882Z,8.36
2023-01-08T19:25:54.445Z,8.33
2023-01-08T19:28:27.745Z,8.30
2023-01-08T19:30:58.481Z,8.30
2023-01-08T19:33:29.211Z,8.10
2023-01-08T19:36:05.732Z,8.30
2023-01-08T19:38:36.307Z,8.29
2023-01-08T19:41:27.701Z,8.25
2023-01-08T19:43:58.670Z,8.31
2023-01-08T19:46:36.673Z,8.33
2023-01-08T19:49:21.763Z,8.35
2023-01-08T19:51:52.755Z,8.38
2023-01-08T19:54:25.838Z,8.35
2023-01-08T19:56:56.841Z,8.43
2023-01-08T19:59:30.037Z,8.52
2023-01-08T20:02:00.511Z,8.55
2023-01-08T20:04:31.349Z,8.56
2023-01-08T20:07:01.738Z,8.48
2023-01-08T20:09:34.414Z,8.44
2023-01-08T20:12:05.233Z,8.44
2023-01-08T20:14:38.533Z,8.43
2023-01-08T20:17:09.042Z,8.51
2023-01-08T20:19:39.769Z,8.59
2023-01-08T20:22:10.314Z,8.60
2023-01-08T20:24:41.649Z,8.59
2023-01-08T20:27:12.248Z,8.54
2023-01-08T20:29:45.287Z,8.52
2023-01-08T20:32:15.791Z,8.47
2023-01-08T20:34:46.191Z,8.44
2023-01-08T20:37:17.108Z,8.43
2023-01-08T20:39:47.642Z,8.40
2023-01-08T20:42:32.956Z,8.42
2023-01-08T20:45:10.115Z,8.45
2023-01-08T20:47:40.553Z,8.44
2023-01-08T20:50:19.983Z,8.49
2023-01-08T20:53:00.318Z,8.51
2023-01-08T20:55:31.113Z,8.38
2023-01-08T20:58:02.077Z,8.50
2023-01-08T21:00:35.118Z,8.47
2023-01-08T21:03:06.006Z,8.41
2023-01-08T21:05:38.115Z,8.36
2023-01-08T21:08:10.148Z,8.37
2023-01-08T21:10:40.600Z,8.39
2023-01-08T21:13:14.316Z,8.42
2023-01-08T21:15:49.812Z,8.43
2023-01-08T21:18:23.249Z,8.44
2023-01-08T21:20:54.056Z,8.43
2023-01-08T21:23:24.435Z,8.45
2023-01-08T21:25:58.104Z,8.43
2023-01-08T21:28:29.219Z,8.34
2023-01-08T21:31:07.979Z,8.43
2023-01-08T21:33:38.860Z,8.40
2023-01-08T21:36:12.180Z,8.27
2023-01-08T21:38:43.265Z,8.26
2023-01-08T21:41:36.444Z,8.26
2023-01-08T21:44:26.030Z,8.24
2023-01-08T21:47:01.206Z,8.24
2023-01-08T21:49:31.963Z,8.19
2023-01-08T21:52:14.841Z,8.16
2023-01-08T21:54:45.529Z,8.19
2023-01-08T21:57:16.756Z,8.25
2023-01-08T21:59:48.563Z,8.24
2023-01-08T22:02:24.289Z,8.23
2023-01-08T22:04:58.436Z,8.28
2023-01-08T22:07:29.103Z,8.27
2023-01-08T22:10:00.663Z,8.29
2023-01-08T22:12:31.147Z,8.30
2023-01-08T22:15:01.746Z,8.30
2023-01-08T22:17:34.846Z,8.27
2023-01-08T22:20:08.125Z,8.22
2023-01-08T22:22:39.076Z,8.12
2023-01-08T22:25:11.131Z,8.13
2023-01-08T22:27:41.591Z,8.14
2023-01-08T22:30:13.829Z,8.16
2023-01-08T22:32:47.660Z,8.21
2023-01-08T22:35:18.352Z,8.24
2023-01-08T22:37:48.654Z,8.22
2023-01-08T22:40:19.762Z,8.19
2023-01-08T22:42:50.148Z,8.16
2023-01-08T22:45:20.667Z,8.13
2023-01-08T22:47:53.657Z,8.10
2023-01-08T22:50:26.751Z,8.08
2023-01-08T22:52:57.171Z,8.02
2023-01-08T22:55:27.575Z,7.99
2023-01-08T22:57:58.029Z,7.95
2023-01-08T23:00:32.558Z,7.89
2023-01-08T23:03:09.065Z,7.83
2023-01-08T23:05:40.202Z,7.80
2023-01-08T23:08:11.185Z,7.77
2023-01-08T23:10:42.227Z,7.76
2023-01-08T23:13:12.643Z,7.76
2023-01-08T23:15:43.424Z,7.74
2023-01-08T23:18:16.610Z,7.75
2023-01-08T23:20:47.301Z,7.77
2023-01-08T23:23:18.058Z,7.78
2023-01-08T23:25:51.192Z,7.81
2023-01-08T23:28:21.746Z,7.83
2023-01-08T23:30:52.309Z,7.82
2023-01-08T23:33:25.435Z,7.90
2023-01-08T23:35:56.342Z,7.97
2023-01-08T23:38:26.872Z,8.05
2023-01-08T23:40:57.461Z,8.11
2023-01-08T23:43:28.252Z,7.99
2023-01-08T23:45:59.923Z,8.25
2023-01-08T23:48:33.568Z,8.26
2023-01-08T23:51:04.345Z,8.34
2023-01-08T23:53:34.932Z,8.35
2023-01-08T23:56:05.660Z,8.37
2023-01-08T23:58:36.165Z,8.33
